sensor_id;sensor_type;location;lat;lon;timestamp;P1;durP1;ratioP1;P2;durP2;ratioP2
2712;SDS011;1366;47.988;7.856;2023-04-06T04:01:00;6.00;;;5.43;;
2712;SDS011;1366;47.988;7.856;2023-04-06T04:03:26;5.73;;;5.23;;
2712;SDS011;1366;47.988;7.856;2023-04-06T04:05:52;5.27;;;4.83;;
2712;SDS011;1366;47.988;7.856;2023-04-06T04:08:20;5.53;;;5.03;;
2712;SDS011;1366;47.988;7.856;2023-04-06T04:10:46;5.20;;;4.70;;
2712;SDS011;1366;47.988;7.856;2023-04-06T04:13:12;5.53;;;5.13;;
2712;SDS011;1366;47.988;7.856;2023-04-06T04:15:38;5.17;;;4.67;;
2712;SDS011;1366;47.988;7.856;2023-04-06T04:18:04;5.13;;;4.73;;
2712;SDS011;1366;47.988;7.856;2023-04-06T04:20:30;5.17;;;4.70;;
2712;SDS011;1366;47.988;7.856;2023-04-06T04:22:56;5.33;;;4.80;;
2712;SDS011;1366;47.988;7.856;2023-04-06T04:25:23;5.50;;;5.00;;
2712;SDS011;1366;47.988;7.856;2023-04-06T04:27:49;5.40;;;5.00;;
2712;SDS011;1366;47.988;7.856;2023-04-06T04:30:15;5.40;;;4.90;;
2712;SDS011;1366;47.988;7.856;2023-04-06T04:32:41;5.30;;;4.90;;
2712;SDS011;1366;47.988;7.856;2023-04-06T04:35:08;5.50;;;4.80;;
2712;SDS011;1366;47.988;7.856;2023-04-06T04:37:34;5.03;;;4.53;;
2712;SDS011;1366;47.988;7.856;2023-04-06T04:40:00;5.50;;;5.07;;
2712;SDS011;1366;47.988;7.856;2023-04-06T04:42:26;5.20;;;4.70;;
2712;SDS011;1366;47.988;7.856;2023-04-06T04:44:52;5.13;;;4.60;;
2712;SDS011;1366;47.988;7.856;2023-04-06T04:47:18;5.67;;;5.17;;
2712;SDS011;1366;47.988;7.856;2023-04-06T04:49:44;6.63;;;5.40;;
2712;SDS011;1366;47.988;7.856;2023-04-06T04:52:11;7.03;;;5.57;;
2712;SDS011;1366;47.988;7.856;2023-04-06T04:54:37;5.50;;;5.10;;
2712;SDS011;1366;47.988;7.856;2023-04-06T04:57:05;6.30;;;5.80;;
2712;SDS011;1366;47.988;7.856;2023-04-06T04:59:31;5.63;;;5.10;;
2712;SDS011;1366;47.988;7.856;2023-04-06T05:01:57;5.07;;;4.63;;
2712;SDS011;1366;47.988;7.856;2023-04-06T05:04:23;5.20;;;4.80;;
2712;SDS011;1366;47.988;7.856;2023-04-06T05:06:49;5.20;;;4.80;;
2712;SDS011;1366;47.988;7.856;2023-04-06T05:09:16;5.27;;;4.87;;
2712;SDS011;1366;47.988;7.856;2023-04-06T05:11:42;5.33;;;4.83;;
2712;SDS011;1366;47.988;7.856;2023-04-06T05:14:09;5.70;;;5.20;;
2712;SDS011;1366;47.988;7.856;2023-04-06T05:16:35;5.60;;;5.20;;
2712;SDS011;1366;47.988;7.856;2023-04-06T05:19:01;5.93;;;5.43;;
2712;SDS011;1366;47.988;7.856;2023-04-06T05:21:27;5.80;;;5.40;;
2712;SDS011;1366;47.988;7.856;2023-04-06T05:23:53;5.70;;;5.10;;
2712;SDS011;1366;47.988;7.856;2023-04-06T05:26:19;5.70;;;5.17;;
2712;SDS011;1366;47.988;7.856;2023-04-06T05:28:45;5.70;;;5.10;;
2712;SDS011;1366;47.988;7.856;2023-04-06T05:31:11;5.57;;;5.17;;
2712;SDS011;1366;47.988;7.856;2023-04-06T05:33:37;6.23;;;5.70;;
2712;SDS011;1366;47.988;7.856;2023-04-06T05:36:03;6.30;;;5.70;;
2712;SDS011;1366;47.988;7.856;2023-04-06T05:38:31;7.10;;;5.10;;
2712;SDS011;1366;47.988;7.856;2023-04-06T05:40:58;5.30;;;4.87;;
2712;SDS011;1366;47.988;7.856;2023-04-06T05:43:24;5.43;;;4.93;;
2712;SDS011;1366;47.988;7.856;2023-04-06T05:45:50;5.80;;;5.20;;
2712;SDS011;1366;47.988;7.856;2023-04-06T05:48:16;5.30;;;4.80;;
2712;SDS011;1366;47.988;7.856;2023-04-06T05:50:42;5.70;;;5.20;;
2712;SDS011;1366;47.988;7.856;2023-04-06T05:53:08;5.33;;;4.90;;
2712;SDS011;1366;47.988;7.856;2023-04-06T05:55:34;6.23;;;5.73;;
2712;SDS011;1366;47.988;7.856;2023-04-06T05:58:00;5.60;;;5.10;;
2712;SDS011;1366;47.988;7.856;2023-04-06T06:00:26;5.97;;;5.47;;
2712;SDS011;1366;47.988;7.856;2023-04-06T06:02:53;5.53;;;5.03;;
2712;SDS011;1366;47.988;7.856;2023-04-06T06:05:19;5.43;;;4.93;;
2712;SDS011;1366;47.988;7.856;2023-04-06T06:07:45;6.37;;;5.50;;
2712;SDS011;1366;47.988;7.856;2023-04-06T06:10:11;6.90;;;6.20;;
2712;SDS011;1366;47.988;7.856;2023-04-06T06:12:37;8.80;;;6.60;;
2712;SDS011;1366;47.988;7.856;2023-04-06T06:15:03;6.30;;;5.70;;
2712;SDS011;1366;47.988;7.856;2023-04-06T06:17:30;7.23;;;6.63;;
2712;SDS011;1366;47.988;7.856;2023-04-06T06:19:57;6.93;;;6.17;;
2712;SDS011;1366;47.988;7.856;2023-04-06T06:22:23;7.00;;;6.30;;
2712;SDS011;1366;47.988;7.856;2023-04-06T06:24:49;7.40;;;6.23;;
2712;SDS011;1366;47.988;7.856;2023-04-06T06:27:15;7.00;;;6.30;;
2712;SDS011;1366;47.988;7.856;2023-04-06T06:29:41;6.77;;;6.07;;
2712;SDS011;1366;47.988;7.856;2023-04-06T06:32:07;7.60;;;6.20;;
2712;SDS011;1366;47.988;7.856;2023-04-06T06:34:34;6.80;;;6.20;;
2712;SDS011;1366;47.988;7.856;2023-04-06T06:37:00;7.00;;;6.47;;
2712;SDS011;1366;47.988;7.856;2023-04-06T06:39:27;6.43;;;5.90;;
2712;SDS011;1366;47.988;7.856;2023-04-06T06:41:53;6.00;;;5.50;;
2712;SDS011;1366;47.988;7.856;2023-04-06T06:44:20;10.10;;;5.83;;
2712;SDS011;1366;47.988;7.856;2023-04-06T06:46:46;6.63;;;6.03;;
2712;SDS011;1366;47.988;7.856;2023-04-06T06:49:12;6.93;;;6.23;;
2712;SDS011;1366;47.988;7.856;2023-04-06T06:51:39;6.07;;;5.40;;
2712;SDS011;1366;47.988;7.856;2023-04-06T06:54:05;7.60;;;6.30;;
2712;SDS011;1366;47.988;7.856;2023-04-06T06:56:31;11.80;;;6.43;;
2712;SDS011;1366;47.988;7.856;2023-04-06T06:58:57;8.57;;;6.07;;
2712;SDS011;1366;47.988;7.856;2023-04-06T07:01:23;6.93;;;6.33;;
2712;SDS011;1366;47.988;7.856;2023-04-06T07:03:49;7.57;;;6.40;;
2712;SDS011;1366;47.988;7.856;2023-04-06T07:06:16;6.20;;;5.60;;
2712;SDS011;1366;47.988;7.856;2023-04-06T07:08:42;7.13;;;6.43;;
2712;SDS011;1366;47.988;7.856;2023-04-06T07:11:08;7.00;;;6.30;;
2712;SDS011;1366;47.988;7.856;2023-04-06T07:13:34;6.80;;;5.70;;
2712;SDS011;1366;47.988;7.856;2023-04-06T07:16:00;7.53;;;6.50;;
2712;SDS011;1366;47.988;7.856;2023-04-06T07:18:26;6.80;;;6.20;;
2712;SDS011;1366;47.988;7.856;2023-04-06T07:20:52;6.80;;;6.20;;
2712;SDS011;1366;47.988;7.856;2023-04-06T07:23:18;10.20;;;6.37;;
2712;SDS011;1366;47.988;7.856;2023-04-06T07:25:44;7.33;;;6.53;;
2712;SDS011;1366;47.988;7.856;2023-04-06T07:28:10;6.13;;;5.63;;
2712;SDS011;1366;47.988;7.856;2023-04-06T07:30:36;7.73;;;6.13;;
2712;SDS011;1366;47.988;7.856;2023-04-06T07:33:03;6.67;;;6.00;;
2712;SDS011;1366;47.988;7.856;2023-04-06T07:35:30;5.80;;;5.40;;
2712;SDS011;1366;47.988;7.856;2023-04-06T07:37:56;6.40;;;5.80;;
2712;SDS011;1366;47.988;7.856;2023-04-06T07:40:23;6.30;;;5.70;;
2712;SDS011;1366;47.988;7.856;2023-04-06T07:42:51;7.27;;;5.60;;
2712;SDS011;1366;47.988;7.856;2023-04-06T07:45:17;6.27;;;5.67;;
2712;SDS011;1366;47.988;7.856;2023-04-06T07:47:43;6.07;;;5.47;;
2712;SDS011;1366;47.988;7.856;2023-04-06T07:50:09;7.10;;;6.50;;
2712;SDS011;1366;47.988;7.856;2023-04-06T07:52:35;6.83;;;6.23;;
2712;SDS011;1366;47.988;7.856;2023-04-06T07:55:01;7.17;;;6.03;;
2712;SDS011;1366;47.988;7.856;2023-04-06T07:57:27;5.50;;;5.00;;
2712;SDS011;1366;47.988;7.856;2023-04-06T07:59:54;9.13;;;6.13;;
2712;SDS011;1366;47.988;7.856;2023-04-06T08:02:20;6.27;;;5.67;;
2712;SDS011;1366;47.988;7.856;2023-04-06T08:04:46;5.83;;;5.33;;
2712;SDS011;1366;47.988;7.856;2023-04-06T08:07:12;6.10;;;5.60;;
2712;SDS011;1366;47.988;7.856;2023-04-06T08:09:39;6.17;;;5.57;;
2712;SDS011;1366;47.988;7.856;2023-04-06T08:12:05;6.10;;;5.57;;
2712;SDS011;1366;47.988;7.856;2023-04-06T08:14:31;6.13;;;5.63;;
2712;SDS011;1366;47.988;7.856;2023-04-06T08:16:58;6.73;;;6.10;;
2712;SDS011;1366;47.988;7.856;2023-04-06T08:19:24;7.27;;;6.57;;
2712;SDS011;1366;47.988;7.856;2023-04-06T08:21:50;6.20;;;5.60;;
2712;SDS011;1366;47.988;7.856;2023-04-06T08:24:16;6.47;;;5.80;;
2712;SDS011;1366;47.988;7.856;2023-04-06T08:26:42;7.00;;;6.40;;
2712;SDS011;1366;47.988;7.856;2023-04-06T08:29:08;6.30;;;5.70;;
2712;SDS011;1366;47.988;7.856;2023-04-06T08:31:34;7.03;;;6.33;;
2712;SDS011;1366;47.988;7.856;2023-04-06T08:34:01;7.17;;;6.47;;
2712;SDS011;1366;47.988;7.856;2023-04-06T08:36:27;6.63;;;6.13;;
2712;SDS011;1366;47.988;7.856;2023-04-06T08:38:53;7.40;;;6.80;;
2712;SDS011;1366;47.988;7.856;2023-04-06T08:41:19;7.10;;;6.10;;
2712;SDS011;1366;47.988;7.856;2023-04-06T08:43:49;7.50;;;6.80;;
2712;SDS011;1366;47.988;7.856;2023-04-06T08:46:16;7.70;;;7.00;;
2712;SDS011;1366;47.988;7.856;2023-04-06T08:48:42;8.10;;;7.30;;
2712;SDS011;1366;47.988;7.856;2023-04-06T08:51:09;7.80;;;7.00;;
2712;SDS011;1366;47.988;7.856;2023-04-06T08:53:35;8.00;;;7.20;;
2712;SDS011;1366;47.988;7.856;2023-04-06T08:56:02;8.00;;;6.73;;
2712;SDS011;1366;47.988;7.856;2023-04-06T08:58:35;8.97;;;6.30;;
2712;SDS011;1366;47.988;7.856;2023-04-06T09:01:02;8.70;;;7.90;;
2712;SDS011;1366;47.988;7.856;2023-04-06T09:03:32;8.53;;;7.63;;
2712;SDS011;1366;47.988;7.856;2023-04-06T09:05:59;10.07;;;7.37;;
2712;SDS011;1366;47.988;7.856;2023-04-06T09:08:25;8.43;;;7.50;;
2712;SDS011;1366;47.988;7.856;2023-04-06T09:10:52;8.30;;;7.07;;
2712;SDS011;1366;47.988;7.856;2023-04-06T09:13:18;8.03;;;7.30;;
2712;SDS011;1366;47.988;7.856;2023-04-06T09:15:44;9.37;;;7.13;;
2712;SDS011;1366;47.988;7.856;2023-04-06T09:18:10;10.20;;;7.20;;
2712;SDS011;1366;47.988;7.856;2023-04-06T09:20:36;8.50;;;6.67;;
2712;SDS011;1366;47.988;7.856;2023-04-06T09:23:02;9.40;;;7.23;;
2712;SDS011;1366;47.988;7.856;2023-04-06T09:25:28;10.47;;;7.00;;
2712;SDS011;1366;47.988;7.856;2023-04-06T09:28:03;7.57;;;6.80;;
2712;SDS011;1366;47.988;7.856;2023-04-06T09:30:29;10.00;;;8.03;;
2712;SDS011;1366;47.988;7.856;2023-04-06T09:32:56;8.30;;;7.50;;
2712;SDS011;1366;47.988;7.856;2023-04-06T09:35:24;7.67;;;6.87;;
2712;SDS011;1366;47.988;7.856;2023-04-06T09:37:51;8.90;;;7.50;;
2712;SDS011;1366;47.988;7.856;2023-04-06T09:40:18;8.50;;;6.87;;
2712;SDS011;1366;47.988;7.856;2023-04-06T09:42:45;7.77;;;6.97;;
2712;SDS011;1366;47.988;7.856;2023-04-06T09:45:11;10.90;;;7.30;;
2712;SDS011;1366;47.988;7.856;2023-04-06T09:47:39;9.93;;;7.10;;
2712;SDS011;1366;47.988;7.856;2023-04-06T09:50:05;9.63;;;6.93;;
2712;SDS011;1366;47.988;7.856;2023-04-06T09:52:36;7.30;;;6.60;;
2712;SDS011;1366;47.988;7.856;2023-04-06T09:55:04;8.40;;;6.97;;
2712;SDS011;1366;47.988;7.856;2023-04-06T09:57:37;8.07;;;7.07;;
2712;SDS011;1366;47.988;7.856;2023-04-06T10:00:06;8.10;;;6.40;;
2712;SDS011;1366;47.988;7.856;2023-04-06T10:05:06;9.87;;;8.10;;
2712;SDS011;1366;47.988;7.856;2023-04-06T10:07:34;8.20;;;6.90;;
2712;SDS011;1366;47.988;7.856;2023-04-06T10:10:00;7.93;;;7.07;;
2712;SDS011;1366;47.988;7.856;2023-04-06T10:12:28;7.20;;;6.53;;
2712;SDS011;1366;47.988;7.856;2023-04-06T10:14:54;6.90;;;6.20;;
2712;SDS011;1366;47.988;7.856;2023-04-06T10:17:20;7.60;;;6.83;;
2712;SDS011;1366;47.988;7.856;2023-04-06T10:22:22;6.83;;;6.23;;
2712;SDS011;1366;47.988;7.856;2023-04-06T10:24:50;6.93;;;6.27;;
2712;SDS011;1366;47.988;7.856;2023-04-06T10:27:16;6.67;;;6.00;;
2712;SDS011;1366;47.988;7.856;2023-04-06T10:29:43;7.30;;;6.17;;
2712;SDS011;1366;47.988;7.856;2023-04-06T10:32:10;7.07;;;6.07;;
2712;SDS011;1366;47.988;7.856;2023-04-06T10:34:36;8.37;;;5.77;;
2712;SDS011;1366;47.988;7.856;2023-04-06T10:37:15;7.80;;;6.80;;
2712;SDS011;1366;47.988;7.856;2023-04-06T10:39:47;7.47;;;6.77;;
2712;SDS011;1366;47.988;7.856;2023-04-06T10:42:13;7.20;;;6.50;;
2712;SDS011;1366;47.988;7.856;2023-04-06T10:44:43;6.73;;;6.00;;
2712;SDS011;1366;47.988;7.856;2023-04-06T10:47:17;7.13;;;6.30;;
2712;SDS011;1366;47.988;7.856;2023-04-06T10:49:43;7.27;;;6.17;;
2712;SDS011;1366;47.988;7.856;2023-04-06T10:52:09;10.83;;;6.80;;
2712;SDS011;1366;47.988;7.856;2023-04-06T10:54:36;6.67;;;5.67;;
2712;SDS011;1366;47.988;7.856;2023-04-06T10:57:06;6.67;;;5.23;;
2712;SDS011;1366;47.988;7.856;2023-04-06T10:59:32;6.40;;;5.43;;
2712;SDS011;1366;47.988;7.856;2023-04-06T11:01:58;8.73;;;5.57;;
2712;SDS011;1366;47.988;7.856;2023-04-06T11:04:25;6.30;;;5.70;;
2712;SDS011;1366;47.988;7.856;2023-04-06T11:06:51;5.63;;;5.00;;
2712;SDS011;1366;47.988;7.856;2023-04-06T11:09:27;7.57;;;5.93;;
2712;SDS011;1366;47.988;7.856;2023-04-06T11:11:53;6.10;;;5.50;;
2712;SDS011;1366;47.988;7.856;2023-04-06T11:14:20;7.23;;;6.30;;
2712;SDS011;1366;47.988;7.856;2023-04-06T11:16:46;6.10;;;5.47;;
2712;SDS011;1366;47.988;7.856;2023-04-06T11:19:16;5.80;;;5.10;;
2712;SDS011;1366;47.988;7.856;2023-04-06T11:21:43;6.20;;;5.60;;
2712;SDS011;1366;47.988;7.856;2023-04-06T11:24:13;7.30;;;4.90;;
2712;SDS011;1366;47.988;7.856;2023-04-06T11:29:23;7.00;;;4.97;;
2712;SDS011;1366;47.988;7.856;2023-04-06T11:31:50;5.20;;;4.70;;
2712;SDS011;1366;47.988;7.856;2023-04-06T11:34:17;5.57;;;5.07;;
2712;SDS011;1366;47.988;7.856;2023-04-06T11:36:44;5.40;;;4.90;;
2712;SDS011;1366;47.988;7.856;2023-04-06T11:39:11;6.87;;;5.00;;
2712;SDS011;1366;47.988;7.856;2023-04-06T11:41:37;5.00;;;4.60;;
2712;SDS011;1366;47.988;7.856;2023-04-06T11:44:03;7.47;;;5.30;;
2712;SDS011;1366;47.988;7.856;2023-04-06T11:46:31;5.90;;;5.30;;
2712;SDS011;1366;47.988;7.856;2023-04-06T11:48:58;5.23;;;4.73;;
2712;SDS011;1366;47.988;7.856;2023-04-06T11:51:25;5.60;;;5.10;;
2712;SDS011;1366;47.988;7.856;2023-04-06T11:53:52;6.50;;;5.90;;
2712;SDS011;1366;47.988;7.856;2023-04-06T11:56:29;5.83;;;5.20;;
2712;SDS011;1366;47.988;7.856;2023-04-06T11:58:56;6.47;;;5.70;;
2712;SDS011;1366;47.988;7.856;2023-04-06T12:01:23;6.60;;;5.40;;
2712;SDS011;1366;47.988;7.856;2023-04-06T12:03:50;5.60;;;5.10;;
2712;SDS011;1366;47.988;7.856;2023-04-06T12:06:17;5.97;;;5.37;;
2712;SDS011;1366;47.988;7.856;2023-04-06T12:08:43;5.70;;;5.20;;
2712;SDS011;1366;47.988;7.856;2023-04-06T12:11:10;5.40;;;5.00;;
2712;SDS011;1366;47.988;7.856;2023-04-06T12:13:36;5.43;;;5.03;;
2712;SDS011;1366;47.988;7.856;2023-04-06T12:16:02;5.77;;;5.27;;
2712;SDS011;1366;47.988;7.856;2023-04-06T12:18:29;5.30;;;4.90;;
2712;SDS011;1366;47.988;7.856;2023-04-06T12:20:55;5.87;;;5.27;;
2712;SDS011;1366;47.988;7.856;2023-04-06T12:23:21;5.37;;;4.73;;
2712;SDS011;1366;47.988;7.856;2023-04-06T12:25:48;7.43;;;5.97;;
2712;SDS011;1366;47.988;7.856;2023-04-06T12:28:14;6.60;;;5.90;;
2712;SDS011;1366;47.988;7.856;2023-04-06T12:30:40;7.90;;;6.33;;
2712;SDS011;1366;47.988;7.856;2023-04-06T12:33:07;6.40;;;5.70;;
2712;SDS011;1366;47.988;7.856;2023-04-06T12:35:33;7.17;;;5.70;;
2712;SDS011;1366;47.988;7.856;2023-04-06T12:38:00;7.50;;;5.90;;
2712;SDS011;1366;47.988;7.856;2023-04-06T12:40:26;5.83;;;5.30;;
2712;SDS011;1366;47.988;7.856;2023-04-06T12:42:52;6.07;;;5.47;;
2712;SDS011;1366;47.988;7.856;2023-04-06T12:45:18;5.80;;;5.20;;
2712;SDS011;1366;47.988;7.856;2023-04-06T12:47:44;6.27;;;5.40;;
2712;SDS011;1366;47.988;7.856;2023-04-06T12:50:10;5.73;;;5.20;;
2712;SDS011;1366;47.988;7.856;2023-04-06T12:52:36;7.87;;;6.37;;
2712;SDS011;1366;47.988;7.856;2023-04-06T12:55:03;5.30;;;4.90;;
2712;SDS011;1366;47.988;7.856;2023-04-06T12:57:30;7.20;;;6.30;;
2712;SDS011;1366;47.988;7.856;2023-04-06T12:59:57;11.87;;;7.10;;
2712;SDS011;1366;47.988;7.856;2023-04-06T13:02:23;6.60;;;5.50;;
2712;SDS011;1366;47.988;7.856;2023-04-06T13:04:51;7.27;;;6.50;;
2712;SDS011;1366;47.988;7.856;2023-04-06T13:07:17;6.60;;;6.00;;
2712;SDS011;1366;47.988;7.856;2023-04-06T13:09:43;6.80;;;6.10;;
2712;SDS011;1366;47.988;7.856;2023-04-06T13:12:10;5.73;;;5.23;;
2712;SDS011;1366;47.988;7.856;2023-04-06T13:14:36;5.60;;;5.10;;
2712;SDS011;1366;47.988;7.856;2023-04-06T13:17:02;6.37;;;5.73;;
2712;SDS011;1366;47.988;7.856;2023-04-06T13:19:28;5.73;;;5.23;;
2712;SDS011;1366;47.988;7.856;2023-04-06T13:21:56;6.03;;;5.50;;
2712;SDS011;1366;47.988;7.856;2023-04-06T13:24:22;5.67;;;5.03;;
2712;SDS011;1366;47.988;7.856;2023-04-06T13:26:48;4.60;;;4.20;;
2712;SDS011;1366;47.988;7.856;2023-04-06T13:29:15;5.93;;;5.43;;
2712;SDS011;1366;47.988;7.856;2023-04-06T13:31:41;6.73;;;5.10;;
2712;SDS011;1366;47.988;7.856;2023-04-06T13:34:07;5.93;;;5.07;;
2712;SDS011;1366;47.988;7.856;2023-04-06T13:36:33;5.37;;;4.93;;
2712;SDS011;1366;47.988;7.856;2023-04-06T13:38:59;6.27;;;5.67;;
2712;SDS011;1366;47.988;7.856;2023-04-06T13:41:26;7.07;;;5.20;;
2712;SDS011;1366;47.988;7.856;2023-04-06T13:43:52;5.77;;;5.17;;
2712;SDS011;1366;47.988;7.856;2023-04-06T13:46:18;6.57;;;5.80;;
2712;SDS011;1366;47.988;7.856;2023-04-06T13:48:44;5.53;;;5.00;;
2712;SDS011;1366;47.988;7.856;2023-04-06T13:51:12;6.70;;;5.90;;
2712;SDS011;1366;47.988;7.856;2023-04-06T13:53:38;6.53;;;5.83;;
2712;SDS011;1366;47.988;7.856;2023-04-06T13:56:05;6.10;;;5.60;;
2712;SDS011;1366;47.988;7.856;2023-04-06T13:58:31;5.30;;;4.80;;
2712;SDS011;1366;47.988;7.856;2023-04-06T14:01:04;6.80;;;5.40;;
2712;SDS011;1366;47.988;7.856;2023-04-06T14:03:31;8.43;;;6.17;;
2712;SDS011;1366;47.988;7.856;2023-04-06T14:05:57;5.80;;;4.83;;
2712;SDS011;1366;47.988;7.856;2023-04-06T14:08:23;5.73;;;5.20;;
2712;SDS011;1366;47.988;7.856;2023-04-06T14:10:49;7.30;;;5.77;;
2712;SDS011;1366;47.988;7.856;2023-04-06T14:13:15;5.33;;;4.83;;
2712;SDS011;1366;47.988;7.856;2023-04-06T14:15:42;7.40;;;5.20;;
2712;SDS011;1366;47.988;7.856;2023-04-06T14:18:08;5.70;;;5.20;;
2712;SDS011;1366;47.988;7.856;2023-04-06T14:20:34;6.53;;;5.60;;
2712;SDS011;1366;47.988;7.856;2023-04-06T14:23:01;6.00;;;5.50;;
2712;SDS011;1366;47.988;7.856;2023-04-06T14:25:27;6.70;;;5.50;;
2712;SDS011;1366;47.988;7.856;2023-04-06T14:27:56;6.03;;;5.43;;
2712;SDS011;1366;47.988;7.856;2023-04-06T14:30:22;6.47;;;5.50;;
2712;SDS011;1366;47.988;7.856;2023-04-06T14:32:48;6.10;;;5.33;;
2712;SDS011;1366;47.988;7.856;2023-04-06T14:35:14;5.60;;;5.10;;
2712;SDS011;1366;47.988;7.856;2023-04-06T14:37:40;6.50;;;5.80;;
2712;SDS011;1366;47.988;7.856;2023-04-06T14:40:06;5.37;;;4.97;;
2712;SDS011;1366;47.988;7.856;2023-04-06T14:42:33;10.43;;;6.40;;
2712;SDS011;1366;47.988;7.856;2023-04-06T14:44:59;7.93;;;5.33;;
2712;SDS011;1366;47.988;7.856;2023-04-06T14:47:25;9.77;;;5.80;;
2712;SDS011;1366;47.988;7.856;2023-04-06T14:49:51;5.50;;;5.00;;
2712;SDS011;1366;47.988;7.856;2023-04-06T14:52:18;5.57;;;4.90;;
2712;SDS011;1366;47.988;7.856;2023-04-06T14:54:44;5.93;;;5.23;;
2712;SDS011;1366;47.988;7.856;2023-04-06T14:57:10;7.03;;;6.13;;
2712;SDS011;1366;47.988;7.856;2023-04-06T14:59:36;8.20;;;5.63;;
2712;SDS011;1366;47.988;7.856;2023-04-06T15:02:02;5.50;;;4.97;;
2712;SDS011;1366;47.988;7.856;2023-04-06T15:04:29;5.87;;;4.80;;
2712;SDS011;1366;47.988;7.856;2023-04-06T15:06:55;6.60;;;5.37;;
2712;SDS011;1366;47.988;7.856;2023-04-06T15:09:21;5.93;;;5.40;;
2712;SDS011;1366;47.988;7.856;2023-04-06T15:11:47;7.30;;;5.50;;
2712;SDS011;1366;47.988;7.856;2023-04-06T15:14:13;5.63;;;5.10;;
2712;SDS011;1366;47.988;7.856;2023-04-06T15:16:40;6.00;;;5.40;;
2712;SDS011;1366;47.988;7.856;2023-04-06T15:19:06;5.90;;;4.90;;
2712;SDS011;1366;47.988;7.856;2023-04-06T15:21:33;7.77;;;5.77;;
2712;SDS011;1366;47.988;7.856;2023-04-06T15:23:59;5.53;;;5.00;;
2712;SDS011;1366;47.988;7.856;2023-04-06T15:26:25;6.57;;;5.67;;
2712;SDS011;1366;47.988;7.856;2023-04-06T15:28:51;5.47;;;4.97;;
2712;SDS011;1366;47.988;7.856;2023-04-06T15:31:19;5.80;;;5.10;;
2712;SDS011;1366;47.988;7.856;2023-04-06T15:33:45;8.90;;;5.50;;
2712;SDS011;1366;47.988;7.856;2023-04-06T15:36:27;5.80;;;5.30;;
2712;SDS011;1366;47.988;7.856;2023-04-06T15:38:55;7.07;;;6.33;;
2712;SDS011;1366;47.988;7.856;2023-04-06T15:41:21;4.43;;;4.13;;
2712;SDS011;1366;47.988;7.856;2023-04-06T15:43:47;6.77;;;6.13;;
2712;SDS011;1366;47.988;7.856;2023-04-06T15:46:17;10.30;;;6.10;;
2712;SDS011;1366;47.988;7.856;2023-04-06T15:48:43;5.60;;;5.10;;
2712;SDS011;1366;47.988;7.856;2023-04-06T15:51:09;8.47;;;5.97;;
2712;SDS011;1366;47.988;7.856;2023-04-06T15:53:36;7.97;;;6.90;;
2712;SDS011;1366;47.988;7.856;2023-04-06T15:56:03;7.70;;;6.47;;
2712;SDS011;1366;47.988;7.856;2023-04-06T15:58:29;6.53;;;5.87;;
2712;SDS011;1366;47.988;7.856;2023-04-06T16:00:56;7.97;;;6.30;;
2712;SDS011;1366;47.988;7.856;2023-04-06T16:03:22;7.50;;;5.30;;
2712;SDS011;1366;47.988;7.856;2023-04-06T16:05:48;6.67;;;5.97;;
2712;SDS011;1366;47.988;7.856;2023-04-06T16:08:15;5.53;;;5.03;;
2712;SDS011;1366;47.988;7.856;2023-04-06T16:10:43;7.00;;;5.00;;
2712;SDS011;1366;47.988;7.856;2023-04-06T16:13:09;8.83;;;5.77;;
2712;SDS011;1366;47.988;7.856;2023-04-06T16:15:35;5.77;;;5.20;;
2712;SDS011;1366;47.988;7.856;2023-04-06T16:18:01;5.77;;;5.20;;
2712;SDS011;1366;47.988;7.856;2023-04-06T16:20:28;5.97;;;5.30;;
2712;SDS011;1366;47.988;7.856;2023-04-06T16:22:54;7.00;;;5.07;;
2712;SDS011;1366;47.988;7.856;2023-04-06T16:25:20;5.70;;;5.20;;
2712;SDS011;1366;47.988;7.856;2023-04-06T16:27:47;6.40;;;5.80;;
2712;SDS011;1366;47.988;7.856;2023-04-06T16:30:13;5.90;;;5.20;;
2712;SDS011;1366;47.988;7.856;2023-04-06T16:32:39;6.70;;;5.00;;
2712;SDS011;1366;47.988;7.856;2023-04-06T16:35:05;5.27;;;4.87;;
2712;SDS011;1366;47.988;7.856;2023-04-06T16:37:31;5.50;;;5.00;;
2712;SDS011;1366;47.988;7.856;2023-04-06T16:39:57;5.37;;;4.50;;
2712;SDS011;1366;47.988;7.856;2023-04-06T16:42:23;3.97;;;3.67;;
2712;SDS011;1366;47.988;7.856;2023-04-06T16:44:50;3.83;;;3.50;;
2712;SDS011;1366;47.988;7.856;2023-04-06T16:47:16;3.90;;;3.60;;
2712;SDS011;1366;47.988;7.856;2023-04-06T16:49:42;3.80;;;3.33;;
2712;SDS011;1366;47.988;7.856;2023-04-06T16:52:09;3.70;;;3.23;;
2712;SDS011;1366;47.988;7.856;2023-04-06T16:54:35;3.60;;;3.20;;
2712;SDS011;1366;47.988;7.856;2023-04-06T16:57:01;4.30;;;3.90;;
2712;SDS011;1366;47.988;7.856;2023-04-06T16:59:28;4.30;;;3.90;;
2712;SDS011;1366;47.988;7.856;2023-04-06T17:01:55;13.00;;;4.53;;
2712;SDS011;1366;47.988;7.856;2023-04-06T17:04:21;5.50;;;4.57;;
2712;SDS011;1366;47.988;7.856;2023-04-06T17:06:47;4.20;;;3.90;;
2712;SDS011;1366;47.988;7.856;2023-04-06T17:09:14;5.17;;;4.77;;
2712;SDS011;1366;47.988;7.856;2023-04-06T17:11:40;5.00;;;4.53;;
2712;SDS011;1366;47.988;7.856;2023-04-06T17:14:07;5.10;;;4.60;;
2712;SDS011;1366;47.988;7.856;2023-04-06T17:16:33;5.10;;;4.50;;
2712;SDS011;1366;47.988;7.856;2023-04-06T17:19:00;5.73;;;5.23;;
2712;SDS011;1366;47.988;7.856;2023-04-06T17:21:26;6.20;;;5.00;;
2712;SDS011;1366;47.988;7.856;2023-04-06T17:23:52;5.20;;;4.80;;
2712;SDS011;1366;47.988;7.856;2023-04-06T17:26:18;4.93;;;4.43;;
2712;SDS011;1366;47.988;7.856;2023-04-06T17:28:45;4.70;;;4.30;;
2712;SDS011;1366;47.988;7.856;2023-04-06T17:31:12;5.70;;;4.90;;
2712;SDS011;1366;47.988;7.856;2023-04-06T17:33:38;6.83;;;6.13;;
2712;SDS011;1366;47.988;7.856;2023-04-06T17:36:05;6.57;;;5.97;;
2712;SDS011;1366;47.988;7.856;2023-04-06T17:38:32;6.30;;;5.53;;
2712;SDS011;1366;47.988;7.856;2023-04-06T17:40:58;5.70;;;4.70;;
2712;SDS011;1366;47.988;7.856;2023-04-06T17:43:25;5.63;;;4.30;;
2712;SDS011;1366;47.988;7.856;2023-04-06T17:45:51;15.03;;;13.50;;
2712;SDS011;1366;47.988;7.856;2023-04-06T17:48:18;13.70;;;10.57;;
2712;SDS011;1366;47.988;7.856;2023-04-06T17:50:44;9.20;;;8.30;;
2712;SDS011;1366;47.988;7.856;2023-04-06T17:53:10;9.53;;;7.73;;
2712;SDS011;1366;47.988;7.856;2023-04-06T17:55:36;6.00;;;5.40;;
2712;SDS011;1366;47.988;7.856;2023-04-06T17:58:03;6.20;;;5.50;;
2712;SDS011;1366;47.988;7.856;2023-04-06T18:00:29;5.90;;;5.33;;
2712;SDS011;1366;47.988;7.856;2023-04-06T18:02:55;5.53;;;5.03;;
2712;SDS011;1366;47.988;7.856;2023-04-06T18:05:23;5.00;;;4.50;;
2712;SDS011;1366;47.988;7.856;2023-04-06T18:07:50;4.83;;;4.27;;
2712;SDS011;1366;47.988;7.856;2023-04-06T18:10:20;4.20;;;3.80;;
2712;SDS011;1366;47.988;7.856;2023-04-06T18:12:46;5.10;;;4.60;;
2712;SDS011;1366;47.988;7.856;2023-04-06T18:15:12;4.20;;;3.80;;
2712;SDS011;1366;47.988;7.856;2023-04-06T18:17:39;4.50;;;4.20;;
2712;SDS011;1366;47.988;7.856;2023-04-06T18:20:05;4.87;;;3.90;;
2712;SDS011;1366;47.988;7.856;2023-04-06T18:22:32;4.33;;;3.93;;
2712;SDS011;1366;47.988;7.856;2023-04-06T18:24:58;4.27;;;3.97;;
2712;SDS011;1366;47.988;7.856;2023-04-06T18:27:25;4.90;;;3.67;;
2712;SDS011;1366;47.988;7.856;2023-04-06T18:29:52;4.70;;;4.23;;
2712;SDS011;1366;47.988;7.856;2023-04-06T18:32:18;4.70;;;4.30;;
2712;SDS011;1366;47.988;7.856;2023-04-06T18:34:44;4.43;;;4.00;;
2712;SDS011;1366;47.988;7.856;2023-04-06T18:37:13;4.27;;;3.87;;
2712;SDS011;1366;47.988;7.856;2023-04-06T18:39:41;4.23;;;3.80;;
2712;SDS011;1366;47.988;7.856;2023-04-06T18:42:07;4.60;;;4.20;;
2712;SDS011;1366;47.988;7.856;2023-04-06T18:44:34;4.63;;;4.13;;
2712;SDS011;1366;47.988;7.856;2023-04-06T18:47:00;4.90;;;3.90;;
2712;SDS011;1366;47.988;7.856;2023-04-06T18:49:26;4.83;;;4.43;;
2712;SDS011;1366;47.988;7.856;2023-04-06T18:51:55;4.37;;;3.97;;
2712;SDS011;1366;47.988;7.856;2023-04-06T18:54:29;4.43;;;4.03;;
2712;SDS011;1366;47.988;7.856;2023-04-06T18:56:58;4.80;;;4.40;;
2712;SDS011;1366;47.988;7.856;2023-04-06T18:59:25;3.87;;;3.57;;
2712;SDS011;1366;47.988;7.856;2023-04-06T19:02:00;5.70;;;4.60;;
2712;SDS011;1366;47.988;7.856;2023-04-06T19:04:29;4.80;;;4.40;;
2712;SDS011;1366;47.988;7.856;2023-04-06T19:06:55;5.20;;;4.60;;
2712;SDS011;1366;47.988;7.856;2023-04-06T19:09:24;7.30;;;4.73;;
2712;SDS011;1366;47.988;7.856;2023-04-06T19:11:54;4.83;;;4.53;;
2712;SDS011;1366;47.988;7.856;2023-04-06T19:14:28;5.10;;;4.60;;
2712;SDS011;1366;47.988;7.856;2023-04-06T19:17:01;4.80;;;4.40;;
2712;SDS011;1366;47.988;7.856;2023-04-06T19:19:27;5.57;;;5.10;;